sensor_id;sensor_type;location;lat;lon;timestamp;P1;durP1;ratioP1;P2;durP2;ratioP2
40527;SDS011;26230;51.268;6.534;2024-03-08T00:00:10;31.8;;;28.9;;
40527;SDS011;26230;51.268;6.534;2024-03-08T00:10:00;31.8;;;28.9;;
40527;SDS011;26230;51.268;6.534;2024-03-08T00:20:00;30.2;;;27.6;;
40527;SDS011;26230;51.268;6.534;2024-03-08T00:30:03;31.1;;;28.1;;
40527;SDS011;26230;51.268;6.534;2024-03-08T00:40:00;31.1;;;28.1;;
40527;SDS011;26230;51.268;6.534;2024-03-08T00:50:03;30.7;;;27.7;;
40527;SDS011;26230;51.268;6.534;2024-03-08T01:00:02;30.2;;;27.4;;
40527;SDS011;26230;51.268;6.534;2024-03-08T01:10:03;30.2;;;27.4;;
40527;SDS011;26230;51.268;6.534;2024-03-08T01:20:01;31.0;;;28.0;;
40527;SDS011;26230;51.268;6.534;2024-03-08T01:30:01;31.8;;;28.8;;
40527;SDS011;26230;51.268;6.534;2024-03-08T01:40:01;31.8;;;28.8;;
40527;SDS011;26230;51.268;6.534;2024-03-08T01:50:03;32.4;;;29.0;;
40527;SDS011;26230;51.268;6.534;2024-03-08T02:00:03;32.6;;;29.5;;
40527;SDS011;26230;51.268;6.534;2024-03-08T02:10:00;32.6;;;29.5;;
40527;SDS011;26230;51.268;6.534;2024-03-08T02:20:03;32.3;;;29.1;;
40527;SDS011;26230;51.268;6.534;2024-03-08T02:30:01;33.4;;;30.0;;
40527;SDS011;26230;51.268;6.534;2024-03-08T02:40:00;33.4;;;30.0;;
40527;SDS011;26230;51.268;6.534;2024-03-08T02:50:01;33.4;;;29.9;;
40527;SDS011;26230;51.268;6.534;2024-03-08T03:00:00;34.6;;;31.0;;
40527;SDS011;26230;51.268;6.534;2024-03-08T03:10:01;34.6;;;31.0;;
40527;SDS011;26230;51.268;6.534;2024-03-08T03:20:09;34.2;;;30.8;;
40527;SDS011;26230;51.268;6.534;2024-03-08T03:40:01;34.1;;;30.8;;
40527;SDS011;26230;51.268;6.534;2024-03-08T03:50:02;34.6;;;31.3;;
40527;SDS011;26230;51.268;6.534;2024-03-08T04:00:02;34.3;;;30.9;;
40527;SDS011;26230;51.268;6.534;2024-03-08T04:10:02;34.3;;;30.9;;
40527;SDS011;26230;51.268;6.534;2024-03-08T04:20:01;35.8;;;32.0;;
40527;SDS011;26230;51.268;6.534;2024-03-08T04:30:01;36.7;;;33.0;;
40527;SDS011;26230;51.268;6.534;2024-03-08T04:40:00;36.7;;;33.0;;
40527;SDS011;26230;51.268;6.534;2024-03-08T04:50:00;36.5;;;32.9;;
40527;SDS011;26230;51.268;6.534;2024-03-08T05:00:00;34.6;;;31.1;;
40527;SDS011;26230;51.268;6.534;2024-03-08T05:10:00;34.6;;;31.1;;
40527;SDS011;26230;51.268;6.534;2024-03-08T05:20:01;35.0;;;31.4;;
40527;SDS011;26230;51.268;6.534;2024-03-08T05:30:01;36.7;;;33.1;;
40527;SDS011;26230;51.268;6.534;2024-03-08T05:40:00;36.7;;;33.1;;
40527;SDS011;26230;51.268;6.534;2024-03-08T05:50:00;39.8;;;35.7;;
40527;SDS011;26230;51.268;6.534;2024-03-08T06:00:00;39.7;;;35.6;;
40527;SDS011;26230;51.268;6.534;2024-03-08T06:10:00;39.7;;;35.6;;
40527;SDS011;26230;51.268;6.534;2024-03-08T06:20:04;38.2;;;34.3;;
40527;SDS011;26230;51.268;6.534;2024-03-08T06:30:01;39.9;;;35.8;;
40527;SDS011;26230;51.268;6.534;2024-03-08T06:40:01;39.9;;;35.8;;
40527;SDS011;26230;51.268;6.534;2024-03-08T06:50:00;42.8;;;36.3;;
40527;SDS011;26230;51.268;6.534;2024-03-08T07:00:01;40.4;;;36.1;;
40527;SDS011;26230;51.268;6.534;2024-03-08T07:10:00;40.4;;;36.1;;
40527;SDS011;26230;51.268;6.534;2024-03-08T07:20:06;42.5;;;36.3;;
40527;SDS011;26230;51.268;6.534;2024-03-08T07:30:03;43.2;;;37.2;;
40527;SDS011;26230;51.268;6.534;2024-03-08T07:40:00;43.2;;;37.2;;
40527;SDS011;26230;51.268;6.534;2024-03-08T08:00:00;40.0;;;35.7;;
40527;SDS011;26230;51.268;6.534;2024-03-08T08:10:01;40.0;;;35.7;;
40527;SDS011;26230;51.268;6.534;2024-03-08T08:20:00;42.5;;;36.3;;
40527;SDS011;26230;51.268;6.534;2024-03-08T08:30:00;43.1;;;36.1;;
40527;SDS011;26230;51.268;6.534;2024-03-08T08:50:01;37.0;;;33.3;;
40527;SDS011;26230;51.268;6.534;2024-03-08T09:00:02;36.5;;;32.6;;
40527;SDS011;26230;51.268;6.534;2024-03-08T09:20:03;33.8;;;30.4;;
40527;SDS011;26230;51.268;6.534;2024-03-08T09:30:02;32.7;;;29.7;;
40527;SDS011;26230;51.268;6.534;2024-03-08T09:40:04;32.7;;;29.7;;
40527;SDS011;26230;51.268;6.534;2024-03-08T09:50:01;31.9;;;28.9;;
40527;SDS011;26230;51.268;6.534;2024-03-08T10:00:00;30.6;;;28.1;;
40527;SDS011;26230;51.268;6.534;2024-03-08T10:10:00;30.6;;;28.1;;
40527;SDS011;26230;51.268;6.534;2024-03-08T10:20:00;30.8;;;28.2;;
40527;SDS011;26230;51.268;6.534;2024-03-08T10:30:05;30.7;;;28.1;;
40527;SDS011;26230;51.268;6.534;2024-03-08T10:50:21;31.1;;;28.3;;
40527;SDS011;26230;51.268;6.534;2024-03-08T11:00:03;30.5;;;27.8;;
40527;SDS011;26230;51.268;6.534;2024-03-08T11:10:04;30.5;;;27.8;;
40527;SDS011;26230;51.268;6.534;2024-03-08T11:20:01;29.5;;;26.9;;
40527;SDS011;26230;51.268;6.534;2024-03-08T11:30:12;29.2;;;26.6;;
40527;SDS011;26230;51.268;6.534;2024-03-08T11:40:11;29.2;;;26.6;;
40527;SDS011;26230;51.268;6.534;2024-03-08T11:50:03;28.1;;;25.5;;
40527;SDS011;26230;51.268;6.534;2024-03-08T12:00:06;28.7;;;26.3;;
40527;SDS011;26230;51.268;6.534;2024-03-08T12:10:17;28.7;;;26.3;;
40527;SDS011;26230;51.268;6.534;2024-03-08T12:20:24;27.1;;;25.0;;
40527;SDS011;26230;51.268;6.534;2024-03-08T12:30:15;11.5;;;8.8;;
40527;SDS011;26230;51.268;6.534;2024-03-08T12:40:00;11.5;;;8.8;;
40527;SDS011;26230;51.268;6.534;2024-03-08T12:50:00;12.2;;;8.2;;
40527;SDS011;26230;51.268;6.534;2024-03-08T13:00:03;28.4;;;25.8;;
40527;SDS011;26230;51.268;6.534;2024-03-08T13:10:00;28.4;;;25.8;;
40527;SDS011;26230;51.268;6.534;2024-03-08T13:20:01;15.1;;;13.5;;
40527;SDS011;26230;51.268;6.534;2024-03-08T13:30:01;13.0;;;8.3;;
40527;SDS011;26230;51.268;6.534;2024-03-08T13:40:00;13.0;;;8.3;;
40527;SDS011;26230;51.268;6.534;2024-03-08T13:50:00;13.1;;;9.2;;
40527;SDS011;26230;51.268;6.534;2024-03-08T14:00:00;11.5;;;9.1;;
40527;SDS011;26230;51.268;6.534;2024-03-08T14:10:02;11.5;;;9.1;;
40527;SDS011;26230;51.268;6.534;2024-03-08T14:20:01;12.2;;;8.8;;
40527;SDS011;26230;51.268;6.534;2024-03-08T14:30:00;10.2;;;8.3;;
40527;SDS011;26230;51.268;6.534;2024-03-08T14:40:00;10.2;;;8.3;;
40527;SDS011;26230;51.268;6.534;2024-03-08T14:50:00;11.1;;;8.0;;
40527;SDS011;26230;51.268;6.534;2024-03-08T15:00:06;28.0;;;25.7;;
40527;SDS011;26230;51.268;6.534;2024-03-08T15:10:00;28.0;;;25.7;;
40527;SDS011;26230;51.268;6.534;2024-03-08T15:20:01;10.3;;;8.1;;
40527;SDS011;26230;51.268;6.534;2024-03-08T15:30:01;11.6;;;9.4;;
40527;SDS011;26230;51.268;6.534;2024-03-08T15:40:06;11.6;;;9.4;;
40527;SDS011;26230;51.268;6.534;2024-03-08T15:50:03;14.3;;;10.9;;
40527;SDS011;26230;51.268;6.534;2024-03-08T16:00:01;13.4;;;9.6;;
40527;SDS011;26230;51.268;6.534;2024-03-08T16:10:00;13.4;;;9.6;;
40527;SDS011;26230;51.268;6.534;2024-03-08T16:20:00;14.7;;;9.8;;
40527;SDS011;26230;51.268;6.534;2024-03-08T16:30:00;12.2;;;9.1;;
40527;SDS011;26230;51.268;6.534;2024-03-08T16:40:02;12.2;;;9.1;;
40527;SDS011;26230;51.268;6.534;2024-03-08T16:50:00;15.9;;;11.3;;
40527;SDS011;26230;51.268;6.534;2024-03-08T17:00:06;14.6;;;12.2;;
40527;SDS011;26230;51.268;6.534;2024-03-08T17:10:00;14.6;;;12.2;;
40527;SDS011;26230;51.268;6.534;2024-03-08T17:20:00;18.7;;;11.1;;
40527;SDS011;26230;51.268;6.534;2024-03-08T17:30:04;14.0;;;11.7;;
40527;SDS011;26230;51.268;6.534;2024-03-08T17:40:05;14.0;;;11.7;;
40527;SDS011;26230;51.268;6.534;2024-03-08T17:50:00;16.0;;;12.3;;
40527;SDS011;26230;51.268;6.534;2024-03-08T18:00:01;26.7;;;24.4;;
40527;SDS011;26230;51.268;6.534;2024-03-08T18:10:01;26.7;;;24.4;;
40527;SDS011;26230;51.268;6.534;2024-03-08T18:20:00;12.3;;;9.3;;
40527;SDS011;26230;51.268;6.534;2024-03-08T18:30:00;12.3;;;9.2;;
40527;SDS011;26230;51.268;6.534;2024-03-08T18:40:01;12.3;;;9.2;;
40527;SDS011;26230;51.268;6.534;2024-03-08T18:50:00;18.7;;;11.2;;
40527;SDS011;26230;51.268;6.534;2024-03-08T19:00:00;17.1;;;12.0;;
40527;SDS011;26230;51.268;6.534;2024-03-08T19:10:00;17.1;;;12.0;;
40527;SDS011;26230;51.268;6.534;2024-03-08T19:20:06;19.9;;;15.6;;
40527;SDS011;26230;51.268;6.534;2024-03-08T19:30:00;19.4;;;12.6;;
40527;SDS011;26230;51.268;6.534;2024-03-08T19:50:00;30.2;;;27.3;;
40527;SDS011;26230;51.268;6.534;2024-03-08T20:00:00;30.5;;;27.6;;
40527;SDS011;26230;51.268;6.534;2024-03-08T20:10:03;30.5;;;27.6;;
40527;SDS011;26230;51.268;6.534;2024-03-08T20:20:00;34.5;;;29.0;;
40527;SDS011;26230;51.268;6.534;2024-03-08T20:30:01;30.7;;;27.8;;
40527;SDS011;26230;51.268;6.534;2024-03-08T20:40:00;30.7;;;27.8;;
40527;SDS011;26230;51.268;6.534;2024-03-08T20:50:02;31.8;;;28.9;;
40527;SDS011;26230;51.268;6.534;2024-03-08T21:00:06;31.1;;;28.0;;
40527;SDS011;26230;51.268;6.534;2024-03-08T21:10:00;31.1;;;28.0;;
40527;SDS011;26230;51.268;6.534;2024-03-08T21:20:02;30.1;;;27.2;;
40527;SDS011;26230;51.268;6.534;2024-03-08T21:30:01;23.2;;;16.2;;
40527;SDS011;26230;51.268;6.534;2024-03-08T21:40:00;23.2;;;16.2;;
40527;SDS011;26230;51.268;6.534;2024-03-08T21:50:00;22.5;;;15.6;;
40527;SDS011;26230;51.268;6.534;2024-03-08T22:00:00;32.4;;;29.2;;
40527;SDS011;26230;51.268;6.534;2024-03-08T22:10:00;32.4;;;29.2;;
40527;SDS011;26230;51.268;6.534;2024-03-08T22:20:10;32.1;;;29.0;;
40527;SDS011;26230;51.268;6.534;2024-03-08T22:30:00;32.7;;;29.4;;
40527;SDS011;26230;51.268;6.534;2024-03-08T22:40:10;32.7;;;29.4;;
40527;SDS011;26230;51.268;6.534;2024-03-08T22:50:04;33.1;;;29.9;;
40527;SDS011;26230;51.268;6.534;2024-03-08T23:00:00;33.2;;;29.8;;
40527;SDS011;26230;51.268;6.534;2024-03-08T23:10:01;33.2;;;29.8;;
40527;SDS011;26230;51.268;6.534;2024-03-08T23:20:00;33.3;;;30.1;;
40527;SDS011;26230;51.268;6.534;2024-03-08T23:30:00;33.2;;;29.3;;
40527;SDS011;26230;51.268;6.534;2024-03-08T23:40:00;33.2;;;29.3;;
40527;SDS011;26230;51.268;6.534;2024-03-08T23:50:01;33.6;;;30.3;;
